القاهرة, مصر

05:50 PM EET on أعس×س 04, 2015 (GMT +0200)
Cairo International | | Change Station
CLOSE
Current Station
Airport
Location: Cairo,
Elevation: 243 ft
Nearby Weather Stations

Elev 243 ft 30.11 °N, 31.41 °E | Updated 20 minutes ago

Clear
صافية
97 °F
Feels Like 99 °F
N
6
ريح متغير ريح from NW

هذا اليوم
High -- | Low -- °F
--% Chance of Precip.
Yesterday
High -- | Low -- °F
Precip. -- في
5:14 AM 6:45 PM
الأحدب الأخير, 76% visible
الضغط 29.74 في
وضوح الرؤية -9999.0 أميال
سحابات
مؤشر الحرارة 99 °F
نقطة الندى 64 °F
الرطوبة 34%
Rainfall 0.00 في
عمق الثلج Not available.
الأشعة فوق البنفسجية Not available.
Pollen Not available.
جودة الهواء Not available.
Flu Activity Not available.
METAR HECA 041530Z 32005KT CAVOK 36/18 Q1007 NOSIG

More Conditions Fewer Conditions

الضغط 29.74 في
وضوح الرؤية -9999.0 أميال
سحابات
مؤشر الحرارة 99 °F
نقطة الندى 64 °F
الرطوبة 34%
Rainfall 0.00 في
عمق الثلج Not available.
الأشعة فوق البنفسجية Not available.
Pollen Not available.
جودة الهواء Not available.
Flu Activity Not available.
METAR HECA 041530Z 32005KT CAVOK 36/18 Q1007 NOSIG

More Conditions Fewer Conditions

10-Day Weather Forecast

×

Almanac

علم الفلك

Aug. 04, 2015 Rise Set
Actual Time
Civil Twilight
Nautical Twilight
Astronomical Twilight
قمر
Length Of Visible Light
طول الیوم
Tomorrow will be .
, % of the Moon is Illuminated

Today's Extremes

Country Highs Country Lows

Community

WunderPhotos

Upload Photos

1,843,909 photos uploaded!

WunderBlogs® & News

Nearby

جودة الهواء

  جودة الهواء AQ Index Pollutant
Not available.

عمق الثلج

Station Depth Elevation

Earthquake Activity

City Distance Mag. Time & Date
Minimum magnitude displayed is 2.5.

Coastal Water Temperatures

مكان درجات الحرارة

Stations

Nearby Weather Stations

Station Location الحرارة رياح باردة نقطة الندى الرطوبة ريح Precip. Elev تحديث Type